sensor_id;sensor_type;location;lat;lon;timestamp;P1;durP1;ratioP1;P2;durP2;ratioP2
6941;SDS011;3510;43.200;27.920;2023-02-25T00:01:24;52.70;;;30.37;;
6941;SDS011;3510;43.200;27.920;2023-02-25T00:03:52;53.40;;;27.93;;
6941;SDS011;3510;43.200;27.920;2023-02-25T00:06:20;58.63;;;30.90;;
6941;SDS011;3510;43.200;27.920;2023-02-25T00:08:47;48.57;;;30.07;;
6941;SDS011;3510;43.200;27.920;2023-02-25T00:11:16;54.50;;;30.40;;
6941;SDS011;3510;43.200;27.920;2023-02-25T00:13:44;58.43;;;32.97;;
6941;SDS011;3510;43.200;27.920;2023-02-25T00:16:13;52.33;;;32.73;;
6941;SDS011;3510;43.200;27.920;2023-02-25T00:18:40;48.57;;;30.73;;
6941;SDS011;3510;43.200;27.920;2023-02-25T00:21:11;39.87;;;28.40;;
6941;SDS011;3510;43.200;27.920;2023-02-25T00:23:40;42.70;;;26.13;;
6941;SDS011;3510;43.200;27.920;2023-02-25T00:26:08;43.70;;;23.97;;
6941;SDS011;3510;43.200;27.920;2023-02-25T00:28:36;40.47;;;25.60;;
6941;SDS011;3510;43.200;27.920;2023-02-25T00:31:05;43.03;;;26.50;;
6941;SDS011;3510;43.200;27.920;2023-02-25T00:33:34;40.83;;;23.97;;
6941;SDS011;3510;43.200;27.920;2023-02-25T00:36:04;42.30;;;24.80;;
6941;SDS011;3510;43.200;27.920;2023-02-25T00:38:32;52.17;;;25.67;;
6941;SDS011;3510;43.200;27.920;2023-02-25T00:41:03;36.93;;;23.73;;
6941;SDS011;3510;43.200;27.920;2023-02-25T00:43:35;38.23;;;22.50;;
6941;SDS011;3510;43.200;27.920;2023-02-25T00:46:02;32.80;;;21.87;;
6941;SDS011;3510;43.200;27.920;2023-02-25T00:48:28;36.53;;;22.70;;
6941;SDS011;3510;43.200;27.920;2023-02-25T00:50:56;36.60;;;23.73;;
6941;SDS011;3510;43.200;27.920;2023-02-25T00:53:23;39.63;;;24.13;;
6941;SDS011;3510;43.200;27.920;2023-02-25T00:55:56;37.83;;;23.53;;
6941;SDS011;3510;43.200;27.920;2023-02-25T00:58:24;40.70;;;26.15;;
6941;SDS011;3510;43.200;27.920;2023-02-25T01:00:51;43.67;;;19.50;;
6941;SDS011;3510;43.200;27.920;2023-02-25T01:03:17;45.60;;;27.92;;
6941;SDS011;3510;43.200;27.920;2023-02-25T01:05:44;40.83;;;22.60;;
6941;SDS011;3510;43.200;27.920;2023-02-25T01:08:15;40.70;;;23.10;;
6941;SDS011;3510;43.200;27.920;2023-02-25T01:10:42;43.60;;;25.70;;
6941;SDS011;3510;43.200;27.920;2023-02-25T01:13:09;38.67;;;21.30;;
6941;SDS011;3510;43.200;27.920;2023-02-25T06:12:49;39.07;;;29.13;;
6941;SDS011;3510;43.200;27.920;2023-02-25T06:15:18;43.38;;;31.75;;
6941;SDS011;3510;43.200;27.920;2023-02-25T06:17:45;45.30;;;24.83;;
6941;SDS011;3510;43.200;27.920;2023-02-25T06:20:12;46.70;;;27.47;;
6941;SDS011;3510;43.200;27.920;2023-02-25T06:22:41;40.87;;;23.73;;
6941;SDS011;3510;43.200;27.920;2023-02-25T06:25:08;45.80;;;30.20;;
6941;SDS011;3510;43.200;27.920;2023-02-25T06:27:49;49.07;;;24.07;;
6941;SDS011;3510;43.200;27.920;2023-02-25T07:14:38;44.83;;;24.43;;
6941;SDS011;3510;43.200;27.920;2023-02-25T07:17:05;35.00;;;19.73;;
6941;SDS011;3510;43.200;27.920;2023-02-25T07:19:32;38.40;;;23.63;;
6941;SDS011;3510;43.200;27.920;2023-02-25T07:21:59;53.30;;;25.60;;
6941;SDS011;3510;43.200;27.920;2023-02-25T07:24:26;41.03;;;24.40;;
6941;SDS011;3510;43.200;27.920;2023-02-25T07:26:52;38.20;;;21.30;;
6941;SDS011;3510;43.200;27.920;2023-02-25T07:29:20;38.93;;;23.80;;
6941;SDS011;3510;43.200;27.920;2023-02-25T07:31:48;42.27;;;24.40;;
6941;SDS011;3510;43.200;27.920;2023-02-25T07:34:15;44.87;;;23.23;;
6941;SDS011;3510;43.200;27.920;2023-02-25T07:36:42;40.60;;;25.60;;
6941;SDS011;3510;43.200;27.920;2023-02-25T07:39:10;28.53;;;16.87;;
6941;SDS011;3510;43.200;27.920;2023-02-25T07:41:37;32.73;;;20.77;;
6941;SDS011;3510;43.200;27.920;2023-02-25T07:44:05;35.40;;;24.23;;
6941;SDS011;3510;43.200;27.920;2023-02-25T07:46:33;38.50;;;23.53;;
6941;SDS011;3510;43.200;27.920;2023-02-25T07:49:02;38.07;;;22.17;;
6941;SDS011;3510;43.200;27.920;2023-02-25T07:51:29;42.43;;;24.70;;
6941;SDS011;3510;43.200;27.920;2023-02-25T07:53:56;35.63;;;22.03;;
6941;SDS011;3510;43.200;27.920;2023-02-25T07:56:24;35.53;;;18.67;;
6941;SDS011;3510;43.200;27.920;2023-02-25T07:58:52;34.00;;;20.87;;
6941;SDS011;3510;43.200;27.920;2023-02-25T08:01:19;35.90;;;21.70;;
6941;SDS011;3510;43.200;27.920;2023-02-25T08:03:48;41.30;;;22.50;;
6941;SDS011;3510;43.200;27.920;2023-02-25T08:06:16;29.00;;;19.27;;
6941;SDS011;3510;43.200;27.920;2023-02-25T08:08:44;33.90;;;21.27;;
6941;SDS011;3510;43.200;27.920;2023-02-25T08:11:11;35.83;;;20.97;;
6941;SDS011;3510;43.200;27.920;2023-02-25T08:13:39;33.07;;;21.17;;
6941;SDS011;3510;43.200;27.920;2023-02-25T08:16:07;33.33;;;20.50;;
6941;SDS011;3510;43.200;27.920;2023-02-25T08:18:37;32.43;;;19.07;;
6941;SDS011;3510;43.200;27.920;2023-02-25T08:21:06;27.47;;;17.60;;
6941;SDS011;3510;43.200;27.920;2023-02-25T08:23:34;33.80;;;19.87;;
6941;SDS011;3510;43.200;27.920;2023-02-25T08:26:00;38.20;;;20.80;;
6941;SDS011;3510;43.200;27.920;2023-02-25T08:28:28;25.83;;;19.20;;
6941;SDS011;3510;43.200;27.920;2023-02-25T08:30:56;27.63;;;20.30;;
6941;SDS011;3510;43.200;27.920;2023-02-25T08:33:23;33.03;;;17.87;;
6941;SDS011;3510;43.200;27.920;2023-02-25T08:35:50;26.53;;;18.67;;
6941;SDS011;3510;43.200;27.920;2023-02-25T08:38:17;28.40;;;17.87;;
6941;SDS011;3510;43.200;27.920;2023-02-25T08:40:45;26.93;;;16.97;;
6941;SDS011;3510;43.200;27.920;2023-02-25T08:43:12;25.53;;;16.47;;
6941;SDS011;3510;43.200;27.920;2023-02-25T08:45:39;27.27;;;17.23;;
6941;SDS011;3510;43.200;27.920;2023-02-25T08:48:07;26.93;;;16.50;;
6941;SDS011;3510;43.200;27.920;2023-02-25T08:50:35;24.87;;;15.53;;
6941;SDS011;3510;43.200;27.920;2023-02-25T08:53:01;23.93;;;15.17;;
6941;SDS011;3510;43.200;27.920;2023-02-25T08:55:28;23.30;;;14.43;;
6941;SDS011;3510;43.200;27.920;2023-02-25T08:57:56;23.97;;;13.33;;
6941;SDS011;3510;43.200;27.920;2023-02-25T09:00:23;20.57;;;13.13;;
6941;SDS011;3510;43.200;27.920;2023-02-25T09:02:50;14.87;;;13.27;;
6941;SDS011;3510;43.200;27.920;2023-02-25T09:05:17;24.77;;;14.73;;
6941;SDS011;3510;43.200;27.920;2023-02-25T09:07:43;27.73;;;15.13;;
6941;SDS011;3510;43.200;27.920;2023-02-25T09:10:10;22.10;;;13.63;;
6941;SDS011;3510;43.200;27.920;2023-02-25T09:12:39;18.33;;;13.33;;
6941;SDS011;3510;43.200;27.920;2023-02-25T09:15:09;18.10;;;13.77;;
6941;SDS011;3510;43.200;27.920;2023-02-25T09:17:37;39.30;;;20.93;;
6941;SDS011;3510;43.200;27.920;2023-02-25T09:20:05;14.20;;;12.63;;
6941;SDS011;3510;43.200;27.920;2023-02-25T09:22:35;16.75;;;13.38;;
6941;SDS011;3510;43.200;27.920;2023-02-25T09:25:04;16.20;;;11.37;;
6941;SDS011;3510;43.200;27.920;2023-02-25T09:27:31;18.30;;;12.63;;
6941;SDS011;3510;43.200;27.920;2023-02-25T09:29:58;22.37;;;13.00;;
6941;SDS011;3510;43.200;27.920;2023-02-25T09:32:26;17.30;;;12.57;;
6941;SDS011;3510;43.200;27.920;2023-02-25T09:34:56;18.55;;;11.65;;
6941;SDS011;3510;43.200;27.920;2023-02-25T09:37:28;17.60;;;11.00;;
6941;SDS011;3510;43.200;27.920;2023-02-25T09:39:55;17.55;;;11.55;;
6941;SDS011;3510;43.200;27.920;2023-02-25T09:42:22;16.52;;;11.43;;
6941;SDS011;3510;43.200;27.920;2023-02-25T09:44:52;16.90;;;11.48;;
6941;SDS011;3510;43.200;27.920;2023-02-25T09:47:25;20.63;;;11.23;;
6941;SDS011;3510;43.200;27.920;2023-02-25T09:49:58;16.98;;;10.70;;
6941;SDS011;3510;43.200;27.920;2023-02-25T09:52:28;15.45;;;10.10;;
6941;SDS011;3510;43.200;27.920;2023-02-25T09:54:57;17.80;;;9.13;;
6941;SDS011;3510;43.200;27.920;2023-02-25T09:57:31;20.52;;;9.40;;
6941;SDS011;3510;43.200;27.920;2023-02-25T10:00:03;17.75;;;8.95;;
6941;SDS011;3510;43.200;27.920;2023-02-25T10:02:36;16.67;;;8.75;;
6941;SDS011;3510;43.200;27.920;2023-02-25T10:05:12;14.60;;;9.73;;
6941;SDS011;3510;43.200;27.920;2023-02-25T10:07:50;17.23;;;7.65;;
6941;SDS011;3510;43.200;27.920;2023-02-25T10:10:25;14.35;;;8.93;;
6941;SDS011;3510;43.200;27.920;2023-02-25T10:13:02;18.30;;;8.60;;
6941;SDS011;3510;43.200;27.920;2023-02-25T10:15:42;13.63;;;9.07;;
6941;SDS011;3510;43.200;27.920;2023-02-25T10:18:22;12.32;;;9.00;;
6941;SDS011;3510;43.200;27.920;2023-02-25T10:21:01;13.80;;;8.60;;
6941;SDS011;3510;43.200;27.920;2023-02-25T10:23:40;12.15;;;8.15;;
6941;SDS011;3510;43.200;27.920;2023-02-25T10:26:15;9.85;;;6.70;;
6941;SDS011;3510;43.200;27.920;2023-02-25T10:28:46;12.30;;;9.77;;
6941;SDS011;3510;43.200;27.920;2023-02-25T10:31:20;13.05;;;8.90;;
6941;SDS011;3510;43.200;27.920;2023-02-25T10:33:50;14.18;;;9.95;;
6941;SDS011;3510;43.200;27.920;2023-02-25T10:36:19;13.82;;;8.88;;
6941;SDS011;3510;43.200;27.920;2023-02-25T10:38:52;10.85;;;9.25;;
6941;SDS011;3510;43.200;27.920;2023-02-25T10:41:20;15.55;;;9.75;;
6941;SDS011;3510;43.200;27.920;2023-02-25T10:43:51;11.80;;;8.77;;
6941;SDS011;3510;43.200;27.920;2023-02-25T10:46:20;13.45;;;9.95;;
6941;SDS011;3510;43.200;27.920;2023-02-25T10:48:57;10.32;;;8.73;;
6941;SDS011;3510;43.200;27.920;2023-02-25T10:51:25;13.13;;;8.88;;
6941;SDS011;3510;43.200;27.920;2023-02-25T10:54:02;14.32;;;8.73;;
6941;SDS011;3510;43.200;27.920;2023-02-25T10:56:37;13.43;;;9.45;;
6941;SDS011;3510;43.200;27.920;2023-02-25T10:59:20;11.60;;;8.65;;
6941;SDS011;3510;43.200;27.920;2023-02-25T11:01:51;17.42;;;9.95;;
6941;SDS011;3510;43.200;27.920;2023-02-25T11:04:22;16.10;;;9.13;;
6941;SDS011;3510;43.200;27.920;2023-02-25T11:06:53;18.42;;;9.23;;
6941;SDS011;3510;43.200;27.920;2023-02-25T11:09:28;12.93;;;8.32;;
6941;SDS011;3510;43.200;27.920;2023-02-25T11:12:08;19.02;;;9.02;;
6941;SDS011;3510;43.200;27.920;2023-02-25T11:14:43;14.25;;;8.23;;
6941;SDS011;3510;43.200;27.920;2023-02-25T11:17:11;14.00;;;8.77;;
6941;SDS011;3510;43.200;27.920;2023-02-25T11:19:46;14.45;;;8.60;;
6941;SDS011;3510;43.200;27.920;2023-02-25T11:22:16;32.88;;;9.82;;
6941;SDS011;3510;43.200;27.920;2023-02-25T11:24:53;13.60;;;8.20;;
6941;SDS011;3510;43.200;27.920;2023-02-25T11:27:27;17.88;;;9.43;;
6941;SDS011;3510;43.200;27.920;2023-02-25T11:30:00;20.77;;;9.05;;
6941;SDS011;3510;43.200;27.920;2023-02-25T11:32:30;22.77;;;8.93;;
6941;SDS011;3510;43.200;27.920;2023-02-25T11:35:01;17.02;;;8.43;;
6941;SDS011;3510;43.200;27.920;2023-02-25T11:37:34;18.10;;;8.57;;
6941;SDS011;3510;43.200;27.920;2023-02-25T11:40:13;12.82;;;8.02;;
6941;SDS011;3510;43.200;27.920;2023-02-25T11:42:58;18.88;;;8.57;;
6941;SDS011;3510;43.200;27.920;2023-02-25T11:45:26;14.60;;;8.13;;
6941;SDS011;3510;43.200;27.920;2023-02-25T11:47:56;25.65;;;9.18;;
6941;SDS011;3510;43.200;27.920;2023-02-25T11:50:26;14.13;;;8.13;;
6941;SDS011;3510;43.200;27.920;2023-02-25T11:53:02;14.20;;;7.38;;
6941;SDS011;3510;43.200;27.920;2023-02-25T11:55:42;14.60;;;9.45;;
6941;SDS011;3510;43.200;27.920;2023-02-25T11:58:24;17.83;;;8.23;;
6941;SDS011;3510;43.200;27.920;2023-02-25T12:00:59;20.33;;;8.85;;
6941;SDS011;3510;43.200;27.920;2023-02-25T12:03:43;14.82;;;8.45;;
6941;SDS011;3510;43.200;27.920;2023-02-25T12:06:30;10.52;;;7.97;;
6941;SDS011;3510;43.200;27.920;2023-02-25T12:09:15;18.48;;;9.45;;
6941;SDS011;3510;43.200;27.920;2023-02-25T12:12:06;15.15;;;8.95;;
6941;SDS011;3510;43.200;27.920;2023-02-25T12:20:46;15.27;;;8.80;;
6941;SDS011;3510;43.200;27.920;2023-02-25T12:26:33;19.13;;;8.70;;
6941;SDS011;3510;43.200;27.920;2023-02-25T12:29:16;18.00;;;9.07;;
6941;SDS011;3510;43.200;27.920;2023-02-25T12:32:12;20.27;;;8.50;;
6941;SDS011;3510;43.200;27.920;2023-02-25T12:34:52;15.05;;;9.15;;
6941;SDS011;3510;43.200;27.920;2023-02-25T12:37:41;17.40;;;8.48;;
6941;SDS011;3510;43.200;27.920;2023-02-25T12:40:27;14.23;;;8.40;;
6941;SDS011;3510;43.200;27.920;2023-02-25T12:43:13;14.52;;;8.13;;
6941;SDS011;3510;43.200;27.920;2023-02-25T12:45:56;14.27;;;7.55;;
6941;SDS011;3510;43.200;27.920;2023-02-25T12:48:43;19.60;;;9.57;;
6941;SDS011;3510;43.200;27.920;2023-02-25T12:51:27;15.00;;;8.50;;
6941;SDS011;3510;43.200;27.920;2023-02-25T12:54:09;16.08;;;8.40;;
6941;SDS011;3510;43.200;27.920;2023-02-25T12:56:54;18.02;;;8.48;;
6941;SDS011;3510;43.200;27.920;2023-02-25T12:59:35;13.10;;;8.38;;
6941;SDS011;3510;43.200;27.920;2023-02-25T13:02:19;16.83;;;8.10;;
6941;SDS011;3510;43.200;27.920;2023-02-25T13:05:04;18.77;;;9.20;;
6941;SDS011;3510;43.200;27.920;2023-02-25T13:10:45;15.85;;;8.93;;
6941;SDS011;3510;43.200;27.920;2023-02-25T13:13:25;14.60;;;8.40;;
6941;SDS011;3510;43.200;27.920;2023-02-25T13:16:14;13.95;;;8.70;;
6941;SDS011;3510;43.200;27.920;2023-02-25T13:18:56;13.73;;;9.10;;
6941;SDS011;3510;43.200;27.920;2023-02-25T13:21:44;18.85;;;9.75;;
6941;SDS011;3510;43.200;27.920;2023-02-25T13:24:24;16.52;;;8.52;;
6941;SDS011;3510;43.200;27.920;2023-02-25T13:27:11;15.05;;;9.43;;
6941;SDS011;3510;43.200;27.920;2023-02-25T13:29:54;18.55;;;9.70;;
6941;SDS011;3510;43.200;27.920;2023-02-25T13:32:33;17.33;;;9.82;;
6941;SDS011;3510;43.200;27.920;2023-02-25T13:37:58;14.48;;;8.93;;
6941;SDS011;3510;43.200;27.920;2023-02-25T13:40:39;16.65;;;8.77;;
6941;SDS011;3510;43.200;27.920;2023-02-25T13:43:21;19.13;;;8.82;;
6941;SDS011;3510;43.200;27.920;2023-02-25T13:46:04;16.50;;;9.38;;
6941;SDS011;3510;43.200;27.920;2023-02-25T13:48:55;18.70;;;9.45;;
6941;SDS011;3510;43.200;27.920;2023-02-25T13:54:29;19.33;;;8.55;;
6941;SDS011;3510;43.200;27.920;2023-02-25T13:57:10;11.65;;;8.80;;
6941;SDS011;3510;43.200;27.920;2023-02-25T13:59:55;15.60;;;9.13;;
6941;SDS011;3510;43.200;27.920;2023-02-25T14:02:35;20.48;;;9.52;;
6941;SDS011;3510;43.200;27.920;2023-02-25T14:05:22;20.23;;;9.85;;
6941;SDS011;3510;43.200;27.920;2023-02-25T14:08:01;21.38;;;10.35;;
6941;SDS011;3510;43.200;27.920;2023-02-25T14:10:43;16.67;;;9.18;;
6941;SDS011;3510;43.200;27.920;2023-02-25T14:13:23;13.38;;;9.48;;
6941;SDS011;3510;43.200;27.920;2023-02-25T14:16:06;18.25;;;9.27;;
6941;SDS011;3510;43.200;27.920;2023-02-25T14:18:53;14.68;;;8.80;;
6941;SDS011;3510;43.200;27.920;2023-02-25T14:21:37;19.05;;;9.68;;
6941;SDS011;3510;43.200;27.920;2023-02-25T14:24:21;17.10;;;9.23;;
6941;SDS011;3510;43.200;27.920;2023-02-25T14:27:01;19.25;;;9.40;;
6941;SDS011;3510;43.200;27.920;2023-02-25T14:29:41;15.05;;;9.85;;
6941;SDS011;3510;43.200;27.920;2023-02-25T14:32:26;15.05;;;8.65;;
6941;SDS011;3510;43.200;27.920;2023-02-25T14:35:12;17.75;;;8.80;;
6941;SDS011;3510;43.200;27.920;2023-02-25T14:37:51;11.88;;;9.73;;
6941;SDS011;3510;43.200;27.920;2023-02-25T14:40:28;13.98;;;9.65;;
6941;SDS011;3510;43.200;27.920;2023-02-25T14:43:14;11.45;;;8.32;;
6941;SDS011;3510;43.200;27.920;2023-02-25T14:45:58;16.30;;;9.45;;
6941;SDS011;3510;43.200;27.920;2023-02-25T14:48:33;13.98;;;8.77;;
6941;SDS011;3510;43.200;27.920;2023-02-25T14:51:15;13.80;;;9.27;;
6941;SDS011;3510;43.200;27.920;2023-02-25T14:57:06;15.52;;;9.88;;
6941;SDS011;3510;43.200;27.920;2023-02-25T15:02:45;19.58;;;9.13;;
6941;SDS011;3510;43.200;27.920;2023-02-25T15:05:33;19.48;;;9.05;;
6941;SDS011;3510;43.200;27.920;2023-02-25T15:08:15;15.55;;;9.82;;
6941;SDS011;3510;43.200;27.920;2023-02-25T15:10:57;20.52;;;10.18;;
6941;SDS011;3510;43.200;27.920;2023-02-25T15:13:49;20.17;;;9.73;;
6941;SDS011;3510;43.200;27.920;2023-02-25T15:19:36;22.17;;;9.90;;
6941;SDS011;3510;43.200;27.920;2023-02-25T15:22:15;13.90;;;9.02;;
6941;SDS011;3510;43.200;27.920;2023-02-25T15:24:45;14.35;;;9.05;;
6941;SDS011;3510;43.200;27.920;2023-02-25T15:30:09;25.45;;;10.63;;
6941;SDS011;3510;43.200;27.920;2023-02-25T15:32:48;14.98;;;10.18;;
6941;SDS011;3510;43.200;27.920;2023-02-25T15:35:21;21.20;;;8.77;;
6941;SDS011;3510;43.200;27.920;2023-02-25T15:40:43;15.52;;;8.52;;
6941;SDS011;3510;43.200;27.920;2023-02-25T15:49:06;15.07;;;8.18;;
6941;SDS011;3510;43.200;27.920;2023-02-25T15:51:46;14.65;;;7.57;;
6941;SDS011;3510;43.200;27.920;2023-02-25T16:00:00;16.80;;;8.55;;
6941;SDS011;3510;43.200;27.920;2023-02-25T16:02:33;11.82;;;7.57;;
6941;SDS011;3510;43.200;27.920;2023-02-25T16:05:15;9.07;;;6.65;;
6941;SDS011;3510;43.200;27.920;2023-02-25T16:07:46;24.58;;;8.70;;
6941;SDS011;3510;43.200;27.920;2023-02-25T16:10:18;9.85;;;7.82;;
6941;SDS011;3510;43.200;27.920;2023-02-25T16:12:50;23.42;;;10.05;;
6941;SDS011;3510;43.200;27.920;2023-02-25T16:15:20;18.80;;;8.73;;
6941;SDS011;3510;43.200;27.920;2023-02-25T16:17:53;14.02;;;9.02;;
6941;SDS011;3510;43.200;27.920;2023-02-25T16:20:25;16.35;;;8.23;;
6941;SDS011;3510;43.200;27.920;2023-02-25T16:22:55;21.95;;;10.63;;
6941;SDS011;3510;43.200;27.920;2023-02-25T16:25:27;16.75;;;8.20;;
6941;SDS011;3510;43.200;27.920;2023-02-25T16:28:04;13.75;;;7.93;;
6941;SDS011;3510;43.200;27.920;2023-02-25T16:30:40;15.07;;;7.93;;
6941;SDS011;3510;43.200;27.920;2023-02-25T16:33:16;12.75;;;8.18;;
6941;SDS011;3510;43.200;27.920;2023-02-25T16:42:01;15.60;;;8.45;;
6941;SDS011;3510;43.200;27.920;2023-02-25T16:44:33;13.02;;;7.55;;
6941;SDS011;3510;43.200;27.920;2023-02-25T16:47:03;12.70;;;7.93;;
6941;SDS011;3510;43.200;27.920;2023-02-25T16:49:32;12.50;;;7.70;;
6941;SDS011;3510;43.200;27.920;2023-02-25T16:52:03;16.05;;;8.50;;
6941;SDS011;3510;43.200;27.920;2023-02-25T16:54:32;15.10;;;8.10;;
6941;SDS011;3510;43.200;27.920;2023-02-25T16:57:04;11.15;;;7.88;;
6941;SDS011;3510;43.200;27.920;2023-02-25T16:59:34;13.07;;;7.88;;
6941;SDS011;3510;43.200;27.920;2023-02-25T17:02:02;14.52;;;7.88;;
6941;SDS011;3510;43.200;27.920;2023-02-25T17:04:48;13.15;;;8.02;;
6941;SDS011;3510;43.200;27.920;2023-02-25T17:07:16;13.38;;;8.30;;
6941;SDS011;3510;43.200;27.920;2023-02-25T17:09:47;9.80;;;7.82;;
6941;SDS011;3510;43.200;27.920;2023-02-25T17:12:18;11.00;;;7.47;;
6941;SDS011;3510;43.200;27.920;2023-02-25T17:14:49;15.10;;;9.13;;
6941;SDS011;3510;43.200;27.920;2023-02-25T17:17:20;18.63;;;11.63;;
6941;SDS011;3510;43.200;27.920;2023-02-25T17:19:50;16.00;;;8.60;;
6941;SDS011;3510;43.200;27.920;2023-02-25T17:22:19;17.98;;;9.02;;
6941;SDS011;3510;43.200;27.920;2023-02-25T17:24:47;13.75;;;8.43;;
6941;SDS011;3510;43.200;27.920;2023-02-25T17:27:18;11.20;;;8.40;;
6941;SDS011;3510;43.200;27.920;2023-02-25T17:29:47;15.13;;;8.18;;
6941;SDS011;3510;43.200;27.920;2023-02-25T17:32:19;14.38;;;7.13;;
6941;SDS011;3510;43.200;27.920;2023-02-25T17:34:48;14.98;;;8.35;;
6941;SDS011;3510;43.200;27.920;2023-02-25T17:37:17;13.50;;;8.10;;
6941;SDS011;3510;43.200;27.920;2023-02-25T17:39:45;15.40;;;8.30;;
6941;SDS011;3510;43.200;27.920;2023-02-25T17:42:25;18.35;;;8.43;;
6941;SDS011;3510;43.200;27.920;2023-02-25T17:44:54;19.45;;;9.05;;
6941;SDS011;3510;43.200;27.920;2023-02-25T17:47:21;15.23;;;8.80;;
6941;SDS011;3510;43.200;27.920;2023-02-25T17:50:10;11.30;;;8.10;;
6941;SDS011;3510;43.200;27.920;2023-02-25T17:52:47;13.07;;;7.97;;
6941;SDS011;3510;43.200;27.920;2023-02-25T17:55:20;14.15;;;8.65;;
6941;SDS011;3510;43.200;27.920;2023-02-25T17:57:50;10.38;;;8.02;;
6941;SDS011;3510;43.200;27.920;2023-02-25T18:00:20;13.63;;;9.05;;
6941;SDS011;3510;43.200;27.920;2023-02-25T18:02:48;14.52;;;7.50;;
6941;SDS011;3510;43.200;27.920;2023-02-25T18:05:37;17.65;;;8.70;;
6941;SDS011;3510;43.200;27.920;2023-02-25T18:08:15;12.35;;;7.15;;
6941;SDS011;3510;43.200;27.920;2023-02-25T18:10:45;16.75;;;8.50;;
6941;SDS011;3510;43.200;27.920;2023-02-25T18:13:18;11.20;;;6.80;;
6941;SDS011;3510;43.200;27.920;2023-02-25T18:18:53;17.90;;;9.88;;
6941;SDS011;3510;43.200;27.920;2023-02-25T18:21:24;15.48;;;9.48;;
6941;SDS011;3510;43.200;27.920;2023-02-25T18:23:51;16.48;;;8.73;;
6941;SDS011;3510;43.200;27.920;2023-02-25T18:26:18;18.98;;;9.15;;
6941;SDS011;3510;43.200;27.920;2023-02-25T18:28:49;19.52;;;8.68;;
6941;SDS011;3510;43.200;27.920;2023-02-25T18:31:16;12.52;;;7.78;;
6941;SDS011;3510;43.200;27.920;2023-02-25T18:33:44;11.45;;;7.47;;
6941;SDS011;3510;43.200;27.920;2023-02-25T18:36:15;15.32;;;8.27;;
6941;SDS011;3510;43.200;27.920;2023-02-25T18:38:47;16.42;;;7.30;;
6941;SDS011;3510;43.200;27.920;2023-02-25T18:41:14;12.73;;;7.15;;
6941;SDS011;3510;43.200;27.920;2023-02-25T18:43:41;9.10;;;6.93;;
6941;SDS011;3510;43.200;27.920;2023-02-25T18:46:10;19.17;;;8.13;;
6941;SDS011;3510;43.200;27.920;2023-02-25T18:48:37;11.10;;;7.00;;
6941;SDS011;3510;43.200;27.920;2023-02-25T18:51:08;11.75;;;8.60;;
6941;SDS011;3510;43.200;27.920;2023-02-25T18:53:37;11.48;;;7.22;;
6941;SDS011;3510;43.200;27.920;2023-02-25T18:56:05;13.97;;;7.40;;
6941;SDS011;3510;43.200;27.920;2023-02-25T18:58:32;10.93;;;7.35;;
6941;SDS011;3510;43.200;27.920;2023-02-25T19:00:59;15.93;;;8.25;;
6941;SDS011;3510;43.200;27.920;2023-02-25T19:03:28;12.07;;;6.50;;
6941;SDS011;3510;43.200;27.920;2023-02-25T19:05:57;9.82;;;6.93;;
6941;SDS011;3510;43.200;27.920;2023-02-25T19:08:24;12.60;;;7.43;;
6941;SDS011;3510;43.200;27.920;2023-02-25T19:10:52;8.77;;;6.68;;
6941;SDS011;3510;43.200;27.920;2023-02-25T19:13:27;9.23;;;6.47;;
6941;SDS011;3510;43.200;27.920;2023-02-25T19:15:58;13.38;;;7.47;;
6941;SDS011;3510;43.200;27.920;2023-02-25T19:18:26;10.57;;;7.43;;
6941;SDS011;3510;43.200;27.920;2023-02-25T19:20:54;11.53;;;7.17;;
6941;SDS011;3510;43.200;27.920;2023-02-25T19:23:21;10.67;;;7.13;;
6941;SDS011;3510;43.200;27.920;2023-02-25T19:25:49;11.57;;;7.30;;
6941;SDS011;3510;43.200;27.920;2023-02-25T19:28:21;12.63;;;7.37;;
6941;SDS011;3510;43.200;27.920;2023-02-25T19:30:48;12.27;;;7.70;;
6941;SDS011;3510;43.200;27.920;2023-02-25T19:33:14;16.27;;;8.03;;
6941;SDS011;3510;43.200;27.920;2023-02-25T19:35:42;13.27;;;8.00;;
6941;SDS011;3510;43.200;27.920;2023-02-25T19:38:10;13.67;;;7.33;;
6941;SDS011;3510;43.200;27.920;2023-02-25T19:40:40;10.53;;;6.80;;
6941;SDS011;3510;43.200;27.920;2023-02-25T19:43:08;11.63;;;7.60;;
6941;SDS011;3510;43.200;27.920;2023-02-25T19:45:35;10.23;;;6.77;;
6941;SDS011;3510;43.200;27.920;2023-02-25T19:48:04;15.90;;;7.07;;
6941;SDS011;3510;43.200;27.920;2023-02-25T19:50:31;12.63;;;7.50;;
6941;SDS011;3510;43.200;27.920;2023-02-25T19:53:01;14.93;;;7.10;;
6941;SDS011;3510;43.200;27.920;2023-02-25T19:55:29;20.47;;;6.93;;
6941;SDS011;3510;43.200;27.920;2023-02-25T19:57:57;8.93;;;6.80;;
6941;SDS011;3510;43.200;27.920;2023-02-25T20:00:24;8.80;;;7.00;;
6941;SDS011;3510;43.200;27.920;2023-02-25T20:02:52;10.53;;;6.87;;
6941;SDS011;3510;43.200;27.920;2023-02-25T20:05:20;13.17;;;7.07;;
6941;SDS011;3510;43.200;27.920;2023-02-25T20:07:48;9.37;;;6.50;;
6941;SDS011;3510;43.200;27.920;2023-02-25T20:10:17;14.87;;;6.97;;
6941;SDS011;3510;43.200;27.920;2023-02-25T20:12:46;12.00;;;6.60;;
6941;SDS011;3510;43.200;27.920;2023-02-25T20:15:13;23.43;;;6.97;;
6941;SDS011;3510;43.200;27.920;2023-02-25T20:17:41;12.88;;;7.82;;
6941;SDS011;3510;43.200;27.920;2023-02-25T20:20:23;7.00;;;6.30;;
6941;SDS011;3510;43.200;27.920;2023-02-25T20:23:04;10.47;;;6.63;;
6941;SDS011;3510;43.200;27.920;2023-02-25T20:25:46;8.03;;;6.23;;
6941;SDS011;3510;43.200;27.920;2023-02-25T20:28:13;10.97;;;6.90;;
6941;SDS011;3510;43.200;27.920;2023-02-25T20:30:39;10.40;;;6.90;;
6941;SDS011;3510;43.200;27.920;2023-02-25T20:33:06;13.73;;;7.80;;
6941;SDS011;3510;43.200;27.920;2023-02-25T20:35:33;12.53;;;5.77;;
6941;SDS011;3510;43.200;27.920;2023-02-25T20:38:06;13.90;;;6.90;;
6941;SDS011;3510;43.200;27.920;2023-02-25T20:40:39;8.27;;;6.57;;
6941;SDS011;3510;43.200;27.920;2023-02-25T20:43:09;8.73;;;6.00;;
6941;SDS011;3510;43.200;27.920;2023-02-25T20:45:37;11.97;;;7.63;;
6941;SDS011;3510;43.200;27.920;2023-02-25T20:48:03;8.47;;;6.40;;
6941;SDS011;3510;43.200;27.920;2023-02-25T20:50:30;15.67;;;9.17;;
6941;SDS011;3510;43.200;27.920;2023-02-25T20:52:58;12.57;;;6.97;;
6941;SDS011;3510;43.200;27.920;2023-02-25T20:55:24;13.83;;;7.27;;
6941;SDS011;3510;43.200;27.920;2023-02-25T20:57:51;9.93;;;6.53;;
6941;SDS011;3510;43.200;27.920;2023-02-25T21:00:20;9.10;;;6.30;;
6941;SDS011;3510;43.200;27.920;2023-02-25T21:02:47;10.40;;;6.30;;
6941;SDS011;3510;43.200;27.920;2023-02-25T21:05:14;11.87;;;7.37;;
6941;SDS011;3510;43.200;27.920;2023-02-25T21:07:41;11.53;;;6.47;;
6941;SDS011;3510;43.200;27.920;2023-02-25T21:10:08;13.97;;;7.40;;
6941;SDS011;3510;43.200;27.920;2023-02-25T21:12:35;14.97;;;7.50;;
6941;SDS011;3510;43.200;27.920;2023-02-25T21:15:02;15.07;;;7.37;;
6941;SDS011;3510;43.200;27.920;2023-02-25T21:17:30;11.10;;;6.70;;
6941;SDS011;3510;43.200;27.920;2023-02-25T21:19:57;7.93;;;6.53;;
6941;SDS011;3510;43.200;27.920;2023-02-25T21:22:24;13.27;;;5.70;;
6941;SDS011;3510;43.200;27.920;2023-02-25T21:24:51;18.77;;;6.87;;
6941;SDS011;3510;43.200;27.920;2023-02-25T21:27:18;12.43;;;6.50;;
6941;SDS011;3510;43.200;27.920;2023-02-25T21:29:44;9.10;;;6.53;;
6941;SDS011;3510;43.200;27.920;2023-02-25T21:32:11;14.37;;;6.87;;
6941;SDS011;3510;43.200;27.920;2023-02-25T21:34:39;12.17;;;7.60;;
6941;SDS011;3510;43.200;27.920;2023-02-25T21:37:06;10.63;;;5.43;;
6941;SDS011;3510;43.200;27.920;2023-02-25T21:39:46;12.67;;;6.13;;
6941;SDS011;3510;43.200;27.920;2023-02-25T21:42:27;11.27;;;5.67;;
6941;SDS011;3510;43.200;27.920;2023-02-25T21:45:08;6.27;;;5.60;;
6941;SDS011;3510;43.200;27.920;2023-02-25T21:47:49;14.30;;;6.73;;
6941;SDS011;3510;43.200;27.920;2023-02-25T21:53:28;10.33;;;7.17;;
6941;SDS011;3510;43.200;27.920;2023-02-25T21:55:56;11.50;;;6.37;;